createdAt,value
2022-08-20T00:03:16.432Z,99549.63
2022-08-20T00:08:21.042Z,99532.78
2022-08-20T00:13:27.706Z,99509.34
2022-08-20T00:18:30.379Z,99489.81
2022-08-20T00:23:34.405Z,99492.44
2022-08-20T00:28:37.434Z,99495.78
2022-08-20T00:33:40.649Z,99514.69
2022-08-20T00:38:46.910Z,99492.41
2022-08-20T00:43:51.805Z,99465.94
2022-08-20T00:48:56.413Z,99470.31
2022-08-20T00:54:05.470Z,99458.72
2022-08-20T00:59:11.904Z,99447.13
2022-08-20T01:04:14.378Z,99426.75
2022-08-20T01:09:18.420Z,99395.44
2022-08-20T01:14:45.848Z,99377.50
2022-08-20T01:19:50.462Z,99356.13
2022-08-20T01:25:00.207Z,99326.88
2022-08-20T01:30:06.225Z,99302.78
2022-08-20T01:35:11.179Z,99280.22
2022-08-20T01:40:15.668Z,99268.47
2022-08-20T01:45:19.744Z,99259.66
2022-08-20T01:50:27.334Z,99234.75
2022-08-20T01:55:29.999Z,99225.06
2022-08-20T02:00:35.579Z,99216.94
2022-08-20T02:05:38.274Z,99202.00
2022-08-20T02:10:41.429Z,99193.88
2022-08-20T02:15:45.454Z,99177.97
2022-08-20T02:20:49.594Z,99144.69
2022-08-20T02:25:52.298Z,99133.75
2022-08-20T02:30:56.384Z,99100.97
2022-08-20T02:35:59.021Z,99058.47
2022-08-20T02:41:01.758Z,99035.66
2022-08-20T02:46:06.932Z,98990.13
2022-08-20T02:51:10.098Z,98942.31
2022-08-20T02:56:12.922Z,98875.56
2022-08-20T03:01:18.401Z,98813.31
2022-08-20T03:06:21.998Z,98735.75
2022-08-20T03:11:24.623Z,98664.22
2022-08-20T03:16:28.633Z,98599.97
2022-08-20T03:21:32.378Z,98534.59
2022-08-20T03:26:35.252Z,98481.66
2022-08-20T03:31:39.437Z,98445.88
2022-08-20T03:36:42.724Z,98410.16
2022-08-20T03:41:45.405Z,98376.25
2022-08-20T03:46:49.530Z,98343.44
2022-08-20T03:51:57.483Z,98325.56
2022-08-20T03:57:02.197Z,98317.22
2022-08-20T04:02:06.477Z,98304.78
2022-08-20T04:07:12.506Z,98286.31
2022-08-20T04:12:15.233Z,98277.47
2022-08-20T04:17:20.928Z,98264.44
2022-08-20T04:22:25.285Z,98243.22
2022-08-20T04:27:27.975Z,98179.66
2022-08-20T04:32:32.530Z,98193.09
2022-08-20T04:37:35.302Z,98168.81
2022-08-20T04:42:39.162Z,98147.31
2022-08-20T04:47:43.243Z,98151.09
2022-08-20T04:52:47.684Z,98130.50
2022-08-20T04:57:50.334Z,98113.19
2022-08-20T05:02:54.364Z,98100.34
2022-08-20T05:07:58.300Z,98096.16
2022-08-20T05:13:01.155Z,98072.56
2022-08-20T05:18:07.714Z,98083.72
2022-08-20T05:23:12.661Z,98082.38
2022-08-20T05:28:19.385Z,98072.75
2022-08-20T05:33:23.926Z,98037.84
2022-08-20T05:38:28.983Z,98007.63
2022-08-20T05:43:33.655Z,98006.69
2022-08-20T05:48:37.642Z,98019.66
2022-08-20T05:53:41.578Z,97983.09
2022-08-20T05:58:44.249Z,97985.81
2022-08-20T06:04:05.718Z,97995.59
2022-08-20T06:09:08.476Z,97991.34
2022-08-20T06:14:11.519Z,97986.00
2022-08-20T06:19:15.523Z,97975.91
2022-08-20T06:24:27.787Z,97961.81
2022-08-20T06:29:33.182Z,97932.34
2022-08-20T06:34:37.559Z,97934.72
2022-08-20T06:39:53.050Z,97937.59
2022-08-20T06:44:56.765Z,97941.59
2022-08-20T06:50:00.801Z,97951.00
2022-08-20T06:55:03.474Z,97943.03
2022-08-20T07:00:09.293Z,97952.22
2022-08-20T07:05:13.376Z,97929.63
2022-08-20T07:10:16.959Z,97845.50
2022-08-20T07:15:21.855Z,97907.88
2022-08-20T07:20:26.498Z,97886.97
2022-08-20T07:25:30.412Z,97883.28
2022-08-20T07:30:56.420Z,97820.81
2022-08-20T07:36:03.667Z,97869.03
2022-08-20T07:41:09.859Z,97858.28
2022-08-20T07:46:13.522Z,97851.75
2022-08-20T07:51:19.167Z,97828.03
2022-08-20T07:56:24.536Z,97864.09
2022-08-20T08:01:30.387Z,97846.69
2022-08-20T08:06:34.501Z,97877.00
2022-08-20T08:11:39.502Z,97860.06
2022-08-20T08:16:45.560Z,97871.41
2022-08-20T08:21:50.230Z,97942.38
2022-08-20T08:26:52.895Z,97902.53
2022-08-20T08:31:55.638Z,97936.03
2022-08-20T08:37:02.834Z,97949.44
2022-08-20T08:42:20.432Z,97977.28
2022-08-20T08:47:27.151Z,97979.81
2022-08-20T08:52:33.206Z,98016.19
2022-08-20T08:57:35.953Z,98115.00
2022-08-20T09:02:42.340Z,98147.06
2022-08-20T09:07:47.262Z,98188.25
2022-08-20T09:12:49.990Z,98215.47
2022-08-20T09:17:54.789Z,98243.53
2022-08-20T09:23:00.427Z,98297.72
2022-08-20T09:28:03.275Z,98333.66
2022-08-20T09:33:06.742Z,98307.94
2022-08-20T09:38:10.758Z,98333.59
2022-08-20T09:43:13.910Z,98353.66
2022-08-20T09:48:16.705Z,98342.06
2022-08-20T09:53:21.712Z,98370.75
2022-08-20T09:58:35.263Z,98381.72
2022-08-20T10:03:41.835Z,98397.13
2022-08-20T10:08:46.090Z,98418.94
2022-08-20T10:13:48.755Z,98427.38
2022-08-20T10:18:51.406Z,98479.88
2022-08-20T10:23:55.418Z,98516.69
2022-08-20T10:28:58.149Z,98549.66
2022-08-20T10:34:00.846Z,98543.88
2022-08-20T10:39:05.150Z,98628.38
2022-08-20T10:44:08.505Z,98728.25
2022-08-20T10:49:11.356Z,98800.66
2022-08-20T10:54:15.462Z,98848.91
2022-08-20T10:59:19.749Z,98876.56
2022-08-20T11:04:22.547Z,98954.78
2022-08-20T11:09:26.845Z,98985.13
2022-08-20T11:14:29.718Z,99122.91
2022-08-20T11:19:32.490Z,99268.91
2022-08-20T11:24:36.956Z,99400.31
2022-08-20T11:29:39.889Z,99550.66
2022-08-20T11:34:45.300Z,99614.75
2022-08-20T11:39:49.522Z,99725.88
2022-08-20T11:44:52.385Z,99832.53
2022-08-20T11:49:59.468Z,99941.47
2022-08-20T11:55:05.801Z,100041.63
2022-08-20T12:00:14.636Z,100098.41
2022-08-20T12:05:17.293Z,100149.75
2022-08-20T12:10:23.030Z,100166.53
2022-08-20T12:15:26.765Z,100175.53
2022-08-20T12:20:29.565Z,100170.97
2022-08-20T12:25:33.739Z,100255.81
2022-08-20T12:30:36.640Z,100289.59
2022-08-20T12:35:39.303Z,100270.59
2022-08-20T12:40:43.355Z,100251.34
2022-08-20T12:45:46.322Z,100241.16
2022-08-20T12:50:49.982Z,100218.97
2022-08-20T12:55:54.055Z,100188.66
2022-08-20T13:00:56.749Z,100163.50
2022-08-20T13:06:01.976Z,100122.03
2022-08-20T13:11:06.142Z,100102.06
2022-08-20T13:16:08.789Z,100091.06
2022-08-20T13:21:11.471Z,100096.19
2022-08-20T13:26:15.543Z,100120.88
2022-08-20T13:31:18.986Z,100179.28
2022-08-20T13:36:23.325Z,100228.88
2022-08-20T13:41:27.655Z,100256.09
2022-08-20T13:46:30.596Z,100274.63
2022-08-20T13:51:33.289Z,100236.88
2022-08-20T13:56:37.373Z,100169.19
2022-08-20T14:01:40.498Z,100103.47
2022-08-20T14:06:43.291Z,100060.69
2022-08-20T14:11:47.419Z,99993.56
2022-08-20T14:16:50.086Z,99979.34
2022-08-20T14:21:52.869Z,99950.03
2022-08-20T14:26:56.981Z,100030.63
2022-08-20T14:31:59.736Z,100066.16
2022-08-20T14:37:12.138Z,100073.66
2022-08-20T14:42:16.840Z,100098.75
2022-08-20T14:47:20.742Z,100171.97
2022-08-20T14:52:27.653Z,100189.75
2022-08-20T14:57:32.641Z,100219.97
2022-08-20T15:02:35.491Z,100262.31
2022-08-20T15:07:41.495Z,100278.34
2022-08-20T15:12:46.033Z,100292.94
2022-08-20T15:17:50.972Z,100298.06
2022-08-20T15:22:54.230Z,100307.69
2022-08-20T15:28:01.619Z,100317.31
2022-08-20T15:33:04.891Z,100357.28
2022-08-20T15:38:08.849Z,100325.50
2022-08-20T15:43:12.885Z,100337.31
2022-08-20T15:48:18.687Z,100324.81
2022-08-20T15:53:27.213Z,100326.63
2022-08-20T15:58:37.538Z,100344.56
2022-08-20T16:03:55.397Z,100340.69
2022-08-20T16:09:08.361Z,100366.84
2022-08-20T16:14:16.632Z,100350.72
2022-08-20T16:19:22.843Z,100354.16
2022-08-20T16:24:25.376Z,100359.47
2022-08-20T16:29:38.703Z,100384.00
2022-08-20T16:34:44.107Z,100387.56
2022-08-20T16:39:51.250Z,100406.00
2022-08-20T16:44:56.269Z,100424.13
2022-08-20T16:50:02.038Z,100436.06
2022-08-20T16:55:05.263Z,100437.94
2022-08-20T17:00:13.993Z,100441.63
2022-08-20T17:05:16.814Z,100438.63
2022-08-20T17:10:24.833Z,100432.41
2022-08-20T17:15:31.955Z,100451.28
2022-08-20T17:20:44.714Z,100431.44
2022-08-20T17:25:56.835Z,100440.50
2022-08-20T17:31:00.833Z,100442.31
2022-08-20T17:36:10.208Z,100460.31
2022-08-20T17:41:18.011Z,100463.00
2022-08-20T17:46:23.219Z,100457.63
2022-08-20T17:51:29.403Z,100452.22
2022-08-20T17:56:35.553Z,100459.50
2022-08-20T18:01:39.653Z,100455.88
2022-08-20T18:06:45.970Z,100455.91
2022-08-20T18:11:50.002Z,100460.50
2022-08-20T18:17:12.381Z,100454.28
2022-08-20T18:22:17.745Z,100474.88
2022-08-20T18:27:22.861Z,100431.81
2022-08-20T18:32:31.974Z,100441.72
2022-08-20T18:37:35.084Z,100433.78
2022-08-20T18:42:39.235Z,100436.38
2022-08-20T18:47:45.719Z,100427.53
2022-08-20T18:52:50.920Z,100428.47
2022-08-20T18:57:55.442Z,100423.19
2022-08-20T19:03:03.768Z,100416.06
2022-08-20T19:08:07.768Z,100399.97
2022-08-20T19:13:46.039Z,100410.69
2022-08-20T19:18:52.566Z,100416.97
2022-08-20T19:23:58.454Z,100408.91
2022-08-20T19:29:04.130Z,100404.47
2022-08-20T19:34:20.402Z,100385.72
2022-08-20T19:39:26.027Z,100368.75
2022-08-20T19:44:34.954Z,100353.59
2022-08-20T19:49:44.824Z,100332.19
2022-08-20T19:54:51.237Z,100331.25
2022-08-20T19:59:55.193Z,100306.25
2022-08-20T20:04:59.266Z,100225.97
2022-08-20T20:10:02.199Z,100201.88
2022-08-20T20:15:07.647Z,100190.28
2022-08-20T20:20:24.878Z,100179.56
2022-08-20T20:25:39.567Z,100161.78
2022-08-20T20:30:44.700Z,100143.94
2022-08-20T20:35:48.885Z,100133.25
2022-08-20T20:40:53.150Z,100070.84
2022-08-20T20:46:03.450Z,100045.88
2022-08-20T20:51:16.393Z,100018.25
2022-08-20T20:56:38.190Z,100004.91
2022-08-20T21:01:49.879Z,99974.59
2022-08-20T21:06:56.401Z,99948.78
2022-08-20T21:11:59.117Z,99932.78
2022-08-20T21:17:03.673Z,99905.16
2022-08-20T21:22:09.337Z,99902.50
2022-08-20T21:27:12.671Z,99882.00
2022-08-20T21:32:16.286Z,99865.13
2022-08-20T21:37:20.342Z,99837.53
2022-08-20T21:42:29.106Z,99814.41
2022-08-20T21:47:32.542Z,99814.41
2022-08-20T21:52:37.887Z,99793.06
2022-08-20T21:57:48.431Z,99756.59
2022-08-20T22:02:51.236Z,99736.13
2022-08-20T22:07:55.317Z,99735.22
2022-08-20T22:12:58.177Z,99740.59
2022-08-20T22:18:01.084Z,99728.13
2022-08-20T22:23:06.333Z,99708.56
2022-08-20T22:28:09.438Z,99685.44
2022-08-20T22:33:14.622Z,99678.31
2022-08-20T22:38:19.330Z,99672.13
2022-08-20T22:43:23.171Z,99649.00
2022-08-20T22:48:26.225Z,99611.69
2022-08-20T22:53:30.714Z,99594.81
2022-08-20T22:58:33.399Z,99569.94
2022-08-20T23:03:39.379Z,99552.16
2022-08-20T23:08:45.406Z,99527.31
2022-08-20T23:13:48.745Z,99518.44
2022-08-20T23:18:51.489Z,99490.91
2022-08-20T23:23:55.713Z,99482.00
2022-08-20T23:28:58.409Z,99465.13
2022-08-20T23:34:01.090Z,99457.19
2022-08-20T23:39:07.365Z,99447.41
2022-08-20T23:44:25.250Z,99426.97
2022-08-20T23:49:30.550Z,99409.25
2022-08-20T23:54:34.592Z,99387.94
2022-08-20T23:59:37.520Z,99380.88
